createdAt,value
2022-10-26T01:22:12.589Z,99833.22
2022-10-26T03:26:06.109Z,99794.44
2022-10-26T03:28:33.383Z,99802.50
2022-10-26T04:11:52.247Z,99803.38
2022-10-26T06:36:23.881Z,99879.69
2022-10-26T06:39:16.565Z,99869.06
2022-10-26T06:41:43.327Z,99864.72
2022-10-26T06:44:12.873Z,99866.66
2022-10-26T06:46:41.915Z,99870.41
2022-10-26T06:49:30.345Z,99874.38
2022-10-26T06:52:00.106Z,99875.09
2022-10-26T06:54:32.896Z,99875.94
2022-10-26T06:56:59.520Z,99885.34
2022-10-26T06:59:53.285Z,99882.47
2022-10-26T07:02:20.381Z,99878.47
2022-10-26T07:04:47.071Z,99876.28
2022-10-26T07:07:24.317Z,99890.78
2022-10-26T07:09:51.273Z,99897.19
2022-10-26T07:12:17.675Z,99894.38
2022-10-26T07:14:44.167Z,99893.25
2022-10-26T07:17:11.651Z,99894.19
2022-10-26T07:19:38.019Z,99900.16
2022-10-26T07:22:04.465Z,99903.03
2022-10-26T07:24:31.086Z,99898.16
2022-10-26T07:26:58.261Z,99900.94
2022-10-26T07:29:26.159Z,99901.47
2022-10-26T07:34:20.233Z,99911.75
2022-10-26T07:36:46.684Z,99916.16
2022-10-26T07:39:13.076Z,99916.47
2022-10-26T07:41:39.546Z,99912.44
2022-10-26T07:44:05.912Z,99925.34
2022-10-26T07:46:32.312Z,99918.19
2022-10-26T07:48:58.891Z,99934.06
2022-10-26T07:51:25.666Z,99940.94
2022-10-26T07:53:52.062Z,99939.69
2022-10-26T07:56:18.448Z,99944.75
2022-10-26T07:58:44.829Z,99944.75
2022-10-26T08:01:15.869Z,99943.63
2022-10-26T08:03:42.503Z,99947.00
2022-10-26T08:06:10.360Z,99954.84
2022-10-26T08:08:37.322Z,99942.53
2022-10-26T08:11:04.443Z,99946.03
2022-10-26T08:13:31.002Z,99946.31
2022-10-26T08:15:58.450Z,99947.44
2022-10-26T08:18:25.150Z,99951.06
2022-10-26T08:20:51.546Z,99951.59
2022-10-26T08:23:17.991Z,99942.06
2022-10-26T08:25:44.376Z,99947.38
2022-10-26T08:28:10.779Z,99948.50
2022-10-26T08:30:37.142Z,99953.84
2022-10-26T08:33:05.812Z,99958.88
2022-10-26T08:35:32.723Z,99964.94
2022-10-26T08:37:59.341Z,99968.19
2022-10-26T08:40:29.093Z,99969.59
2022-10-26T08:43:07.844Z,99966.09
2022-10-26T08:45:39.744Z,99960.38
2022-10-26T08:48:12.009Z,99970.22
2022-10-26T08:50:43.096Z,99977.66
2022-10-26T08:53:27.424Z,99973.03
2022-10-26T08:56:01.061Z,99985.13
2022-10-26T08:58:32.220Z,99983.03
2022-10-26T09:00:58.762Z,99974.59
2022-10-26T09:03:25.384Z,99973.06
2022-10-26T09:06:28.735Z,99976.03
2022-10-26T09:09:11.131Z,99972.13
2022-10-26T09:11:52.797Z,99982.25
2022-10-26T09:14:44.776Z,99988.41
2022-10-26T09:17:20.072Z,99993.88
2022-10-26T09:20:04.644Z,100000.34
2022-10-26T09:22:59.095Z,99995.44
2022-10-26T09:25:27.817Z,100002.03
2022-10-26T09:27:56.580Z,100006.13
2022-10-26T09:30:23.386Z,100008.34
2022-10-26T09:32:53.209Z,100010.19
2022-10-26T09:35:24.975Z,100013.56
2022-10-26T09:37:54.933Z,100015.94
2022-10-26T09:40:26.001Z,100019.84
2022-10-26T09:43:11.331Z,100011.41
2022-10-26T09:45:39.293Z,100011.97
2022-10-26T09:48:50.677Z,100026.19
2022-10-26T09:51:18.012Z,100032.22
2022-10-26T09:53:44.531Z,100025.03
2022-10-26T09:56:12.315Z,100015.88
2022-10-26T09:58:44.863Z,100024.63
2022-10-26T10:01:35.518Z,100029.81
2022-10-26T10:04:11.124Z,100039.94
2022-10-26T10:06:37.503Z,100047.81
2022-10-26T10:09:10.318Z,100044.16
2022-10-26T10:11:39.106Z,100041.22
2022-10-26T10:14:09.991Z,100047.69
2022-10-26T10:16:36.440Z,100053.44
2022-10-26T10:19:02.941Z,100055.13
2022-10-26T10:21:44.740Z,100070.88
2022-10-26T10:24:25.436Z,100066.22
2022-10-26T10:27:02.920Z,100063.97
2022-10-26T10:29:34.136Z,100054.06
2022-10-26T10:32:02.395Z,100056.84
2022-10-26T10:34:32.920Z,100066.97
2022-10-26T10:37:00.791Z,100072.44
2022-10-26T10:39:39.235Z,100083.22
2022-10-26T10:42:14.448Z,100083.34
2022-10-26T10:44:40.872Z,100093.16
2022-10-26T10:47:07.698Z,100106.50
2022-10-26T10:49:34.111Z,100110.09
2022-10-26T10:52:00.576Z,100098.97
2022-10-26T10:54:36.188Z,100097.84
2022-10-26T10:57:11.836Z,100096.53
2022-10-26T10:59:43.984Z,100102.75
2022-10-26T11:02:48.223Z,100102.91
2022-10-26T11:05:26.232Z,100095.69
2022-10-26T11:08:18.461Z,100099.09
2022-10-26T11:10:50.289Z,100104.13
2022-10-26T11:13:20.737Z,100104.50
2022-10-26T11:15:49.781Z,100114.47
2022-10-26T11:18:22.863Z,100102.44
2022-10-26T11:21:30.968Z,100111.88
2022-10-26T11:24:07.125Z,100105.91
2022-10-26T11:26:45.126Z,100108.84
2022-10-26T11:29:18.573Z,100117.94
2022-10-26T11:31:51.620Z,100115.03
2022-10-26T11:34:36.115Z,100108.59
2022-10-26T11:37:09.354Z,100126.88
2022-10-26T11:39:47.090Z,100125.19
2022-10-26T11:42:26.349Z,100134.53
2022-10-26T11:44:59.540Z,100143.19
2022-10-26T11:47:35.360Z,100140.31
2022-10-26T11:50:04.459Z,100137.41
2022-10-26T11:52:45.589Z,100140.53
2022-10-26T11:55:12.274Z,100137.84
2022-10-26T11:57:38.892Z,100140.38
2022-10-26T12:00:16.839Z,100132.31
2022-10-26T12:02:47.287Z,100139.38
2022-10-26T12:05:16.828Z,100134.00
2022-10-26T12:07:48.621Z,100137.25
2022-10-26T12:10:24.957Z,100138.94
2022-10-26T12:12:57.831Z,100130.41
2022-10-26T12:15:40.046Z,100137.47
2022-10-26T12:18:43.187Z,100136.47
2022-10-26T12:21:11.591Z,100136.03
2022-10-26T12:23:53.160Z,100141.91
2022-10-26T12:26:28.471Z,100141.59
2022-10-26T12:29:03.045Z,100143.84
2022-10-26T12:31:32.410Z,100142.34
2022-10-26T12:34:00.132Z,100149.09
2022-10-26T12:36:48.928Z,100143.88
2022-10-26T12:39:41.455Z,100140.88
2022-10-26T12:42:07.725Z,100142.97
2022-10-26T12:44:54.427Z,100138.31
2022-10-26T12:47:29.753Z,100145.91
2022-10-26T12:50:00.330Z,100140.06
2022-10-26T12:52:38.380Z,100147.66
2022-10-26T12:55:17.854Z,100148.31
2022-10-26T12:58:10.364Z,100148.84
2022-10-26T13:00:41.617Z,100158.13
2022-10-26T13:03:34.748Z,100157.63
2022-10-26T13:06:48.369Z,100160.03
2022-10-26T13:09:27.922Z,100163.25
2022-10-26T13:11:56.388Z,100155.38
2022-10-26T13:14:31.896Z,100158.59
2022-10-26T13:16:59.239Z,100165.00
2022-10-26T13:19:41.355Z,100159.16
2022-10-26T13:22:19.407Z,100158.00
2022-10-26T13:24:53.485Z,100167.13
2022-10-26T13:27:19.760Z,100162.59
2022-10-26T13:30:04.355Z,100160.84
2022-10-26T13:32:40.153Z,100159.03
2022-10-26T13:35:12.060Z,100155.22
2022-10-26T13:37:46.274Z,100162.66
2022-10-26T13:40:18.179Z,100153.59
2022-10-26T13:43:05.196Z,100152.47
2022-10-26T13:45:46.484Z,100150.13
2022-10-26T13:48:18.915Z,100154.81
2022-10-26T13:50:52.070Z,100157.34
2022-10-26T13:54:00.196Z,100158.69
2022-10-26T13:56:40.776Z,100163.91
2022-10-26T13:59:11.637Z,100169.97
2022-10-26T14:01:38.431Z,100164.41
2022-10-26T14:04:18.079Z,100171.50
2022-10-26T14:06:51.408Z,100173.00
2022-10-26T14:09:18.731Z,100186.13
2022-10-26T14:11:53.998Z,100179.56
2022-10-26T14:14:23.996Z,100183.09
2022-10-26T14:16:51.404Z,100186.81
2022-10-26T14:19:24.444Z,100180.09
2022-10-26T14:21:51.190Z,100188.88
2022-10-26T14:24:40.922Z,100189.88
2022-10-26T14:27:17.866Z,100184.31
2022-10-26T14:29:49.919Z,100198.75
2022-10-26T14:32:31.936Z,100195.56
2022-10-26T14:34:58.336Z,100189.31
2022-10-26T14:37:35.293Z,100200.56
2022-10-26T14:40:02.441Z,100200.38
2022-10-26T14:42:29.564Z,100202.41
2022-10-26T14:44:56.732Z,100211.66
2022-10-26T14:47:28.831Z,100203.22
2022-10-26T14:49:56.171Z,100214.84
2022-10-26T14:52:27.695Z,100215.31
2022-10-26T14:55:05.135Z,100211.78
2022-10-26T14:57:34.048Z,100209.09
2022-10-26T15:00:02.910Z,100210.94
2022-10-26T15:02:30.832Z,100221.19
2022-10-26T15:05:03.484Z,100216.13
2022-10-26T15:07:37.602Z,100226.06
2022-10-26T15:10:05.448Z,100225.19
2022-10-26T15:12:36.549Z,100229.56
2022-10-26T15:15:15.279Z,100229.38
2022-10-26T15:17:43.072Z,100242.44
2022-10-26T15:20:20.441Z,100231.81
2022-10-26T15:22:55.053Z,100235.97
2022-10-26T15:25:26.778Z,100239.47
2022-10-26T15:27:54.203Z,100244.81
2022-10-26T15:30:26.051Z,100248.09
2022-10-26T15:32:55.945Z,100253.94
2022-10-26T15:35:25.637Z,100250.03
2022-10-26T15:37:53.012Z,100254.97
2022-10-26T15:40:19.847Z,100256.25
2022-10-26T15:42:50.823Z,100265.53
2022-10-26T15:45:22.267Z,100274.38
2022-10-26T15:47:51.676Z,100260.72
2022-10-26T15:50:23.282Z,100266.72
2022-10-26T15:52:50.004Z,100267.78
2022-10-26T15:55:17.460Z,100275.16
2022-10-26T15:57:43.876Z,100279.31
2022-10-26T16:00:15.235Z,100282.28
2022-10-26T16:02:42.300Z,100286.09
2022-10-26T16:05:09.093Z,100282.75
2022-10-26T16:07:35.728Z,100285.03
2022-10-26T16:10:02.141Z,100286.47
2022-10-26T16:12:28.532Z,100292.31
2022-10-26T16:15:05.068Z,100301.78
2022-10-26T16:17:33.332Z,100296.16
2022-10-26T16:20:02.309Z,100302.13
2022-10-26T16:22:30.992Z,100301.00
2022-10-26T16:24:59.115Z,100310.19
2022-10-26T16:27:25.490Z,100313.19
2022-10-26T16:29:51.859Z,100315.28
2022-10-26T16:32:18.256Z,100320.41
2022-10-26T16:34:44.636Z,100321.97
2022-10-26T16:37:11.063Z,100324.41
2022-10-26T16:39:37.464Z,100329.34
2022-10-26T16:45:42.033Z,100327.66
2022-10-26T16:48:20.875Z,100329.06
